Augusta, GA (30909)

5:01 AM EST on February 10, 2016 (GMT -0500)
EWARN00001 | | Change Station
CLOSE
Current Station
Personal Weather Station
Location: Augusta, GA
Elevation: 377 ft
Nearby Weather Stations
Active Advisory: Lake Wind Advisory

Elev 377 ft 33.47 °N, 82.08 °W | Updated 25 seconds ago

Clear
Clear
28.2 °F
Feels Like 28 °F
N
0.0
Wind Variable Wind from North

Today
High -- | Low -- °F
--% Chance of Precip.
Yesterday
High -- | Low -- °F
Precip. -- in
Pressure 30.02 in
Visibility 10.0 miles
Clouds Clear
Windchill 28 °F
Dew Point 14 °F
Humidity 56%
Rainfall Not available.
Snow Depth Not available.
7:17 AM 6:07 PM
Waxing Crescent, 4% visible
METAR KDNL 100953Z AUTO 28009G19KT 10SM CLR M02/M11 A3001 RMK AO2 SLP164 T10171106
Pressure 30.02 in
Visibility 10.0 miles
Clouds Clear
Windchill 28 °F
Dew Point 14 °F
Humidity 56%
Rainfall Not available.
Snow Depth Not available.
7:17 AM 6:07 PM
Waxing Crescent, 4% visible
METAR KDNL 100953Z AUTO 28009G19KT 10SM CLR M02/M11 A3001 RMK AO2 SLP164 T10171106

10-Day Weather Forecast

Almanac

Astronomy

Feb. 10, 2016 Rise Set
Actual Time
Civil Twilight
Nautical Twilight
Astronomical Twilight
Moon
Length of Visible Light
Length of Day
Tomorrow will be .
, % of the Moon is Illuminated

Today's Extremes

State Highs State Lows

Community

WunderPhotos

Upload Photos

1,891,828 photos uploaded!

WunderBlog® & News

Nearby

Air Quality

  Air Quality AQ Index Pollutant
Not available.

Snow Depth

Station Depth Elevation

Earthquake Activity

City Distance Mag. Time & Date
Minimum magnitude displayed is 2.5.

Coastal Water Temperatures

Place Temperature

Stations

Nearby Weather Stations

Station Location Temp. Windchill Dew Point Humidity Wind Precip. Elev Updated Type
                   

Watches & Warnings

Lake Wind Advisory
Issued: 3:47 AM EST Feb. 10, 2016 – National Weather Service

... Lake Wind Advisory remains in effect until 11 PM EST this
evening...

* timing... through this evening.

* Winds... west 20 to 30 knots.

* Impacts... strong winds and rough chop will create hazardous
conditions for small craft and personal watercraft.

Precautionary/preparedness actions...

A lake Wind Advisory indicates that winds will cause rough chop
on area lakes. Small boats will be especially prone to capsizing.